Terminal Aerodrome Forecast
Issued by NWS Caribou, ME

Home | Current Version | Previous Version | Text Only | Print | Product List | Glossary On
Versions: 1 2 3 4 5 6 7 8 9 10 11 12 13 14
000
FTUS41 KCAR 210500
TAFBGR
TAF
KBGR 210534Z 2106/2206 21006KT P6SM SCT110
     FM211400 20010KT P6SM SCT250
     FM220200 17006KT P6SM BKN250=

USA.gov is the U.S. government's official web portal to all federal, state and local government web resources and services.